KHMN

Holloman AFB Airport

Alamogordo, New Mexico, USA
METAR KHMN 230956Z AUTO 00000KT 10SM CLR M01/M06 A3013 RMK AO2 SLP183 T10071063 $
Observed Flight Rules
Feb-23 @ 09:56 UTC (27 minutes ago) Visual Flight Rules
Wind Visibility Clouds
Calm 10 miles
  • Clear skies
Temperatures Readings
Current -1°C / 30°F
Dewpoint -6°C / 21°F
Humidity 69%
Altimeter 30.13" Hg
Pressure 1018.3 hPa
Elevation 1248
METAR KHMN 230956Z AUTO 00000KT 10SM CLR M01/M06 A3013 RMK AO2 SLP183 T10071063 $
Observed Flight Rules
Feb-23 @ 09:56 UTC
(27 minutes ago)
VFR
Wind Visibility
Calm 10 miles
Clouds
  • Clear skies
Temperature Dewpoint
-1°C / 30°F -6°C / 21°F
Humidity Altimeter Pressure
69% 30.13" Hg 1018.3 hPa